Startpagina
METAR-TAF:

METAR-TAF

Vliegvelden :

Schaffen

Diest, België

breedte: 51-00N, lengte: 005-04E, hoogte: 30 m

Actueel weer

Dit bericht is 45 minuten geleden gemaakt, om 05:25 UTC
Wind 2 kt uit variabele richting
Temperatuur -2°C
Vochtigheid 100%
Druk 1027 hPa
Zicht: 0750 m
mist

METAR: EBDT 070525Z AUTO VRB02KT 0750 FG SCT110/// BKN130/// M02/M02 Q1027 RED

Tijdstip: 07:10 (06:10 UTC)


TAF: ontbreekt

Waarnemingen en weersverwachtingen van meer dan 4000 vliegvelden (METAR en TAF).

De beschikbare stations zijn de gele en rode punten op de kaart.

Ga met uw muis naar het station om de naam te zien.

Klik dan om waarnemingen en weersverwachtingen te zien.

kaart wijzigen: klik op de groene knoppen met een zwart kruis om in te zoomen, op de groene knop met een streepje om uit te zoomen of op de groene pijlen voor aangrenzende kaarten.


METAR-TAF: